sensor_id;sensor_type;location;lat;lon;timestamp;temperature;humidity
20081;DHT22;10200;49.232;9.222;2022-12-29T00:01:33;9.50;99.90
20081;DHT22;10200;49.232;9.222;2022-12-29T00:03:59;9.50;99.90
20081;DHT22;10200;49.232;9.222;2022-12-29T00:06:24;9.50;99.90
20081;DHT22;10200;49.232;9.222;2022-12-29T00:08:50;9.60;99.90
20081;DHT22;10200;49.232;9.222;2022-12-29T00:11:18;9.60;99.90
20081;DHT22;10200;49.232;9.222;2022-12-29T00:13:44;9.60;99.90
20081;DHT22;10200;49.232;9.222;2022-12-29T00:16:29;9.60;99.90
20081;DHT22;10200;49.232;9.222;2022-12-29T00:18:55;9.70;99.90
20081;DHT22;10200;49.232;9.222;2022-12-29T00:21:23;9.70;99.90
20081;DHT22;10200;49.232;9.222;2022-12-29T00:24:21;9.70;99.90
20081;DHT22;10200;49.232;9.222;2022-12-29T00:26:49;9.70;99.90
20081;DHT22;10200;49.232;9.222;2022-12-29T00:29:36;9.70;99.90
20081;DHT22;10200;49.232;9.222;2022-12-29T00:32:20;9.80;99.90
20081;DHT22;10200;49.232;9.222;2022-12-29T00:35:12;9.80;99.90
20081;DHT22;10200;49.232;9.222;2022-12-29T00:37:42;9.90;99.90
20081;DHT22;10200;49.232;9.222;2022-12-29T00:40:27;9.90;99.90
20081;DHT22;10200;49.232;9.222;2022-12-29T00:43:16;9.90;99.90
20081;DHT22;10200;49.232;9.222;2022-12-29T00:46:00;10.00;99.90
20081;DHT22;10200;49.232;9.222;2022-12-29T00:48:25;10.00;99.90
20081;DHT22;10200;49.232;9.222;2022-12-29T00:51:09;10.00;99.90
20081;DHT22;10200;49.232;9.222;2022-12-29T00:53:35;10.00;99.90
20081;DHT22;10200;49.232;9.222;2022-12-29T00:56:00;10.10;99.90
20081;DHT22;10200;49.232;9.222;2022-12-29T00:58:30;10.10;99.90
20081;DHT22;10200;49.232;9.222;2022-12-29T01:01:03;10.10;99.90
20081;DHT22;10200;49.232;9.222;2022-12-29T01:03:29;10.10;99.90
20081;DHT22;10200;49.232;9.222;2022-12-29T01:05:55;10.10;99.90
20081;DHT22;10200;49.232;9.222;2022-12-29T01:08:20;10.10;99.90
20081;DHT22;10200;49.232;9.222;2022-12-29T01:10:46;10.10;99.90
20081;DHT22;10200;49.232;9.222;2022-12-29T01:13:11;10.10;99.90
20081;DHT22;10200;49.232;9.222;2022-12-29T01:15:37;10.10;99.90
20081;DHT22;10200;49.232;9.222;2022-12-29T01:18:02;10.10;99.90
20081;DHT22;10200;49.232;9.222;2022-12-29T01:20:28;10.10;99.90
20081;DHT22;10200;49.232;9.222;2022-12-29T01:22:54;10.10;99.90
20081;DHT22;10200;49.232;9.222;2022-12-29T01:25:19;10.20;99.90
20081;DHT22;10200;49.232;9.222;2022-12-29T01:27:45;10.20;99.90
20081;DHT22;10200;49.232;9.222;2022-12-29T01:30:11;10.20;99.90
20081;DHT22;10200;49.232;9.222;2022-12-29T01:32:36;10.30;99.90
20081;DHT22;10200;49.232;9.222;2022-12-29T01:35:02;10.30;99.90
20081;DHT22;10200;49.232;9.222;2022-12-29T01:37:28;10.30;99.90
20081;DHT22;10200;49.232;9.222;2022-12-29T01:39:54;10.30;99.90
20081;DHT22;10200;49.232;9.222;2022-12-29T01:42:23;10.30;99.90
20081;DHT22;10200;49.232;9.222;2022-12-29T01:47:41;10.30;99.90
20081;DHT22;10200;49.232;9.222;2022-12-29T01:52:35;10.40;99.90
20081;DHT22;10200;49.232;9.222;2022-12-29T01:55:03;10.30;99.90
20081;DHT22;10200;49.232;9.222;2022-12-29T01:57:34;10.30;99.90
20081;DHT22;10200;49.232;9.222;2022-12-29T02:00:09;10.30;99.90
20081;DHT22;10200;49.232;9.222;2022-12-29T02:02:35;10.30;99.90
20081;DHT22;10200;49.232;9.222;2022-12-29T02:05:07;10.20;99.90
20081;DHT22;10200;49.232;9.222;2022-12-29T02:07:34;10.20;99.90
20081;DHT22;10200;49.232;9.222;2022-12-29T02:10:02;10.20;99.90
20081;DHT22;10200;49.232;9.222;2022-12-29T02:12:28;10.20;99.90
20081;DHT22;10200;49.232;9.222;2022-12-29T02:14:57;10.20;99.90
20081;DHT22;10200;49.232;9.222;2022-12-29T02:25:58;10.30;99.90
20081;DHT22;10200;49.232;9.222;2022-12-29T02:39:34;10.50;99.90
20081;DHT22;10200;49.232;9.222;2022-12-29T02:42:04;10.50;99.90
20081;DHT22;10200;49.232;9.222;2022-12-29T02:47:21;10.40;99.90
20081;DHT22;10200;49.232;9.222;2022-12-29T02:49:55;10.40;99.90
20081;DHT22;10200;49.232;9.222;2022-12-29T02:52:31;10.30;99.90
20081;DHT22;10200;49.232;9.222;2022-12-29T02:54:59;10.30;99.90
20081;DHT22;10200;49.232;9.222;2022-12-29T02:59:54;10.20;99.90
20081;DHT22;10200;49.232;9.222;2022-12-29T03:05:40;10.10;99.90
20081;DHT22;10200;49.232;9.222;2022-12-29T03:11:06;10.00;99.90
20081;DHT22;10200;49.232;9.222;2022-12-29T03:13:56;10.00;99.90
20081;DHT22;10200;49.232;9.222;2022-12-29T03:16:48;10.00;99.90
20081;DHT22;10200;49.232;9.222;2022-12-29T03:19:35;10.00;99.90
20081;DHT22;10200;49.232;9.222;2022-12-29T03:22:07;10.00;99.90
20081;DHT22;10200;49.232;9.222;2022-12-29T03:24:54;10.00;99.90
20081;DHT22;10200;49.232;9.222;2022-12-29T03:27:27;9.90;99.90
20081;DHT22;10200;49.232;9.222;2022-12-29T03:29:58;9.90;99.90
20081;DHT22;10200;49.232;9.222;2022-12-29T03:32:28;9.90;99.90
20081;DHT22;10200;49.232;9.222;2022-12-29T03:34:57;10.00;99.90
20081;DHT22;10200;49.232;9.222;2022-12-29T03:37:31;10.00;99.90
20081;DHT22;10200;49.232;9.222;2022-12-29T03:39:58;10.00;99.90
20081;DHT22;10200;49.232;9.222;2022-12-29T03:42:25;9.90;99.90
20081;DHT22;10200;49.232;9.222;2022-12-29T03:44:56;9.90;99.90
20081;DHT22;10200;49.232;9.222;2022-12-29T03:47:22;9.90;99.90
20081;DHT22;10200;49.232;9.222;2022-12-29T03:49:49;9.90;99.90
20081;DHT22;10200;49.232;9.222;2022-12-29T03:52:14;9.90;99.90
20081;DHT22;10200;49.232;9.222;2022-12-29T03:54:40;9.80;99.90
20081;DHT22;10200;49.232;9.222;2022-12-29T03:57:06;9.80;99.90
20081;DHT22;10200;49.232;9.222;2022-12-29T03:59:31;9.80;99.90
20081;DHT22;10200;49.232;9.222;2022-12-29T04:01:57;9.80;99.90
20081;DHT22;10200;49.232;9.222;2022-12-29T04:04:22;9.80;99.90
20081;DHT22;10200;49.232;9.222;2022-12-29T04:06:48;9.70;99.90
20081;DHT22;10200;49.232;9.222;2022-12-29T04:09:13;9.70;99.90
20081;DHT22;10200;49.232;9.222;2022-12-29T04:11:39;9.70;99.90
20081;DHT22;10200;49.232;9.222;2022-12-29T04:14:04;9.70;99.90
20081;DHT22;10200;49.232;9.222;2022-12-29T04:16:30;9.70;99.90
20081;DHT22;10200;49.232;9.222;2022-12-29T04:18:56;9.70;99.90
20081;DHT22;10200;49.232;9.222;2022-12-29T04:21:21;9.70;99.90
20081;DHT22;10200;49.232;9.222;2022-12-29T04:23:47;9.70;99.90
20081;DHT22;10200;49.232;9.222;2022-12-29T04:26:13;9.60;99.90
20081;DHT22;10200;49.232;9.222;2022-12-29T04:28:38;9.60;99.90
20081;DHT22;10200;49.232;9.222;2022-12-29T04:31:04;9.60;99.90
20081;DHT22;10200;49.232;9.222;2022-12-29T04:33:31;9.50;99.90
20081;DHT22;10200;49.232;9.222;2022-12-29T04:35:56;9.40;99.90
20081;DHT22;10200;49.232;9.222;2022-12-29T04:38:23;9.40;99.90
20081;DHT22;10200;49.232;9.222;2022-12-29T04:40:49;9.30;99.90
20081;DHT22;10200;49.232;9.222;2022-12-29T04:43:16;9.30;99.90
20081;DHT22;10200;49.232;9.222;2022-12-29T04:45:48;9.20;99.90
20081;DHT22;10200;49.232;9.222;2022-12-29T04:48:14;9.20;99.90
20081;DHT22;10200;49.232;9.222;2022-12-29T04:50:40;9.20;99.90
20081;DHT22;10200;49.232;9.222;2022-12-29T04:53:06;9.20;99.90
20081;DHT22;10200;49.232;9.222;2022-12-29T04:55:32;9.10;99.90
20081;DHT22;10200;49.232;9.222;2022-12-29T04:57:58;9.10;99.90
20081;DHT22;10200;49.232;9.222;2022-12-29T05:00:24;9.10;99.90
20081;DHT22;10200;49.232;9.222;2022-12-29T05:02:49;9.00;99.90
20081;DHT22;10200;49.232;9.222;2022-12-29T05:05:15;9.00;99.90
20081;DHT22;10200;49.232;9.222;2022-12-29T05:07:41;9.00;99.90
20081;DHT22;10200;49.232;9.222;2022-12-29T05:10:07;9.00;99.90
20081;DHT22;10200;49.232;9.222;2022-12-29T05:12:34;9.10;99.90
20081;DHT22;10200;49.232;9.222;2022-12-29T05:15:00;9.10;99.90
20081;DHT22;10200;49.232;9.222;2022-12-29T05:17:27;9.10;99.90
20081;DHT22;10200;49.232;9.222;2022-12-29T05:19:52;9.10;99.90
20081;DHT22;10200;49.232;9.222;2022-12-29T05:22:18;9.10;99.90
20081;DHT22;10200;49.232;9.222;2022-12-29T05:24:44;9.20;99.90
20081;DHT22;10200;49.232;9.222;2022-12-29T05:27:09;9.20;99.90
20081;DHT22;10200;49.232;9.222;2022-12-29T05:29:35;9.20;99.90
20081;DHT22;10200;49.232;9.222;2022-12-29T05:32:00;9.30;99.90
20081;DHT22;10200;49.232;9.222;2022-12-29T05:34:26;9.40;99.90
20081;DHT22;10200;49.232;9.222;2022-12-29T05:36:51;9.40;99.90
20081;DHT22;10200;49.232;9.222;2022-12-29T05:39:17;9.50;99.90
20081;DHT22;10200;49.232;9.222;2022-12-29T05:41:42;9.50;99.90
20081;DHT22;10200;49.232;9.222;2022-12-29T05:44:10;9.60;99.90
20081;DHT22;10200;49.232;9.222;2022-12-29T05:46:35;9.60;99.90
20081;DHT22;10200;49.232;9.222;2022-12-29T05:49:01;9.70;99.90
20081;DHT22;10200;49.232;9.222;2022-12-29T05:51:27;9.70;99.90
20081;DHT22;10200;49.232;9.222;2022-12-29T05:53:52;9.80;99.90
20081;DHT22;10200;49.232;9.222;2022-12-29T05:56:18;9.80;99.90
20081;DHT22;10200;49.232;9.222;2022-12-29T05:58:43;9.80;99.90
20081;DHT22;10200;49.232;9.222;2022-12-29T06:01:09;9.80;99.90
20081;DHT22;10200;49.232;9.222;2022-12-29T06:03:34;9.80;99.90
20081;DHT22;10200;49.232;9.222;2022-12-29T06:06:00;9.80;99.90
20081;DHT22;10200;49.232;9.222;2022-12-29T06:08:25;9.80;99.90
20081;DHT22;10200;49.232;9.222;2022-12-29T06:10:51;9.80;99.90
20081;DHT22;10200;49.232;9.222;2022-12-29T06:13:16;9.90;99.90
20081;DHT22;10200;49.232;9.222;2022-12-29T06:15:42;9.90;99.90
20081;DHT22;10200;49.232;9.222;2022-12-29T06:18:08;9.90;99.90
20081;DHT22;10200;49.232;9.222;2022-12-29T06:20:33;9.90;99.90
20081;DHT22;10200;49.232;9.222;2022-12-29T06:22:59;10.00;99.90
20081;DHT22;10200;49.232;9.222;2022-12-29T06:25:24;10.00;99.90
20081;DHT22;10200;49.232;9.222;2022-12-29T06:27:50;10.00;99.90
20081;DHT22;10200;49.232;9.222;2022-12-29T06:30:16;10.10;99.90
20081;DHT22;10200;49.232;9.222;2022-12-29T06:32:42;10.10;99.90
20081;DHT22;10200;49.232;9.222;2022-12-29T06:35:08;10.20;99.90
20081;DHT22;10200;49.232;9.222;2022-12-29T06:37:34;10.30;99.90
20081;DHT22;10200;49.232;9.222;2022-12-29T06:39:59;10.30;99.90
20081;DHT22;10200;49.232;9.222;2022-12-29T06:42:25;10.40;99.90
20081;DHT22;10200;49.232;9.222;2022-12-29T06:44:51;10.40;99.90
20081;DHT22;10200;49.232;9.222;2022-12-29T06:47:17;10.50;99.90
20081;DHT22;10200;49.232;9.222;2022-12-29T06:49:43;10.50;99.90
20081;DHT22;10200;49.232;9.222;2022-12-29T06:52:09;10.60;99.90
20081;DHT22;10200;49.232;9.222;2022-12-29T06:54:34;10.60;99.90
20081;DHT22;10200;49.232;9.222;2022-12-29T06:57:00;10.60;99.90
20081;DHT22;10200;49.232;9.222;2022-12-29T06:59:26;10.70;99.90
20081;DHT22;10200;49.232;9.222;2022-12-29T07:01:51;10.70;99.90
20081;DHT22;10200;49.232;9.222;2022-12-29T07:04:17;10.70;99.90
20081;DHT22;10200;49.232;9.222;2022-12-29T07:06:42;10.70;99.90
20081;DHT22;10200;49.232;9.222;2022-12-29T07:09:08;10.70;99.90
20081;DHT22;10200;49.232;9.222;2022-12-29T07:11:34;10.90;99.90
20081;DHT22;10200;49.232;9.222;2022-12-29T07:14:00;10.90;99.90
20081;DHT22;10200;49.232;9.222;2022-12-29T07:16:26;11.40;99.90
20081;DHT22;10200;49.232;9.222;2022-12-29T07:18:51;10.90;99.90
20081;DHT22;10200;49.232;9.222;2022-12-29T07:21:17;10.90;99.90
20081;DHT22;10200;49.232;9.222;2022-12-29T07:23:43;10.90;99.90
20081;DHT22;10200;49.232;9.222;2022-12-29T07:26:12;10.90;99.90
20081;DHT22;10200;49.232;9.222;2022-12-29T07:28:38;10.90;99.90
20081;DHT22;10200;49.232;9.222;2022-12-29T07:31:12;11.00;99.90
20081;DHT22;10200;49.232;9.222;2022-12-29T07:33:38;11.00;99.90
20081;DHT22;10200;49.232;9.222;2022-12-29T07:36:05;11.00;99.90
20081;DHT22;10200;49.232;9.222;2022-12-29T07:38:30;11.00;99.90
20081;DHT22;10200;49.232;9.222;2022-12-29T07:40:57;11.00;99.90
20081;DHT22;10200;49.232;9.222;2022-12-29T07:43:23;11.10;99.90
20081;DHT22;10200;49.232;9.222;2022-12-29T07:45:49;11.10;99.90
20081;DHT22;10200;49.232;9.222;2022-12-29T07:48:14;11.10;99.90
20081;DHT22;10200;49.232;9.222;2022-12-29T07:50:40;11.10;99.90
20081;DHT22;10200;49.232;9.222;2022-12-29T07:53:05;11.10;99.90
20081;DHT22;10200;49.232;9.222;2022-12-29T07:55:31;11.20;99.90
20081;DHT22;10200;49.232;9.222;2022-12-29T07:57:57;11.20;99.90
20081;DHT22;10200;49.232;9.222;2022-12-29T08:00:22;11.20;99.90
20081;DHT22;10200;49.232;9.222;2022-12-29T08:02:48;11.30;99.90
20081;DHT22;10200;49.232;9.222;2022-12-29T08:05:14;11.30;99.90
20081;DHT22;10200;49.232;9.222;2022-12-29T08:07:43;11.40;99.90
20081;DHT22;10200;49.232;9.222;2022-12-29T08:10:09;11.40;99.90
20081;DHT22;10200;49.232;9.222;2022-12-29T08:12:36;11.40;99.90
20081;DHT22;10200;49.232;9.222;2022-12-29T08:15:02;11.40;99.90
20081;DHT22;10200;49.232;9.222;2022-12-29T08:17:28;11.50;99.90
20081;DHT22;10200;49.232;9.222;2022-12-29T08:19:54;11.50;99.90
20081;DHT22;10200;49.232;9.222;2022-12-29T08:22:19;11.50;99.90
20081;DHT22;10200;49.232;9.222;2022-12-29T08:24:45;11.50;99.90
20081;DHT22;10200;49.232;9.222;2022-12-29T08:27:10;11.60;99.90
20081;DHT22;10200;49.232;9.222;2022-12-29T08:29:36;11.60;99.90
20081;DHT22;10200;49.232;9.222;2022-12-29T08:32:02;11.70;99.90
20081;DHT22;10200;49.232;9.222;2022-12-29T08:34:27;11.70;99.90
20081;DHT22;10200;49.232;9.222;2022-12-29T08:36:53;11.60;99.90
20081;DHT22;10200;49.232;9.222;2022-12-29T08:39:18;11.60;99.90
20081;DHT22;10200;49.232;9.222;2022-12-29T08:41:44;11.60;99.90
20081;DHT22;10200;49.232;9.222;2022-12-29T08:44:09;11.70;99.90
20081;DHT22;10200;49.232;9.222;2022-12-29T08:46:35;11.70;99.90
20081;DHT22;10200;49.232;9.222;2022-12-29T08:49:01;11.70;99.90
20081;DHT22;10200;49.232;9.222;2022-12-29T08:51:26;11.70;99.90
20081;DHT22;10200;49.232;9.222;2022-12-29T08:53:52;11.80;99.90
20081;DHT22;10200;49.232;9.222;2022-12-29T08:56:17;11.70;99.90
20081;DHT22;10200;49.232;9.222;2022-12-29T08:58:43;11.80;99.90
20081;DHT22;10200;49.232;9.222;2022-12-29T09:01:09;11.80;99.90
20081;DHT22;10200;49.232;9.222;2022-12-29T09:03:35;11.80;99.90
20081;DHT22;10200;49.232;9.222;2022-12-29T09:06:00;11.80;99.90
20081;DHT22;10200;49.232;9.222;2022-12-29T09:08:26;11.80;99.90
20081;DHT22;10200;49.232;9.222;2022-12-29T09:10:52;11.80;99.90
20081;DHT22;10200;49.232;9.222;2022-12-29T09:13:18;11.80;99.90
20081;DHT22;10200;49.232;9.222;2022-12-29T09:15:44;11.80;99.90
20081;DHT22;10200;49.232;9.222;2022-12-29T09:18:11;11.80;99.90
20081;DHT22;10200;49.232;9.222;2022-12-29T09:20:36;11.80;99.90
20081;DHT22;10200;49.232;9.222;2022-12-29T09:23:03;11.70;99.90
20081;DHT22;10200;49.232;9.222;2022-12-29T09:25:28;11.70;99.90
20081;DHT22;10200;49.232;9.222;2022-12-29T09:27:54;11.80;99.90
20081;DHT22;10200;49.232;9.222;2022-12-29T09:30:21;11.70;99.90
20081;DHT22;10200;49.232;9.222;2022-12-29T09:32:48;11.70;99.90
20081;DHT22;10200;49.232;9.222;2022-12-29T09:35:15;11.70;99.90
20081;DHT22;10200;49.232;9.222;2022-12-29T09:37:42;11.70;99.90
20081;DHT22;10200;49.232;9.222;2022-12-29T09:40:23;11.70;99.90
20081;DHT22;10200;49.232;9.222;2022-12-29T09:45:30;11.80;99.90
20081;DHT22;10200;49.232;9.222;2022-12-29T09:47:58;11.80;99.90
20081;DHT22;10200;49.232;9.222;2022-12-29T09:50:32;11.80;99.90
20081;DHT22;10200;49.232;9.222;2022-12-29T09:53:08;11.80;99.90
20081;DHT22;10200;49.232;9.222;2022-12-29T09:55:41;11.80;99.90
20081;DHT22;10200;49.232;9.222;2022-12-29T09:58:49;11.80;99.90
20081;DHT22;10200;49.232;9.222;2022-12-29T10:03:51;12.00;99.90
20081;DHT22;10200;49.232;9.222;2022-12-29T10:09:10;12.20;99.90
20081;DHT22;10200;49.232;9.222;2022-12-29T10:11:54;12.40;99.90
20081;DHT22;10200;49.232;9.222;2022-12-29T10:25:22;12.80;99.90
20081;DHT22;10200;49.232;9.222;2022-12-29T10:27:49;12.90;99.90
20081;DHT22;10200;49.232;9.222;2022-12-29T10:30:15;12.90;99.90
20081;DHT22;10200;49.232;9.222;2022-12-29T10:32:51;12.90;99.90
20081;DHT22;10200;49.232;9.222;2022-12-29T10:35:39;12.90;99.90
20081;DHT22;10200;49.232;9.222;2022-12-29T10:38:25;12.90;99.90
20081;DHT22;10200;49.232;9.222;2022-12-29T10:41:09;13.00;99.90
20081;DHT22;10200;49.232;9.222;2022-12-29T10:43:51;13.00;99.90
20081;DHT22;10200;49.232;9.222;2022-12-29T10:46:29;13.00;99.90
20081;DHT22;10200;49.232;9.222;2022-12-29T10:48:56;13.10;99.90
20081;DHT22;10200;49.232;9.222;2022-12-29T10:51:22;13.10;99.90
20081;DHT22;10200;49.232;9.222;2022-12-29T10:53:57;13.10;99.90
20081;DHT22;10200;49.232;9.222;2022-12-29T10:58:55;13.00;99.90
20081;DHT22;10200;49.232;9.222;2022-12-29T11:01:23;13.00;99.90
20081;DHT22;10200;49.232;9.222;2022-12-29T11:06:28;13.00;99.90
20081;DHT22;10200;49.232;9.222;2022-12-29T11:09:16;13.00;99.90
20081;DHT22;10200;49.232;9.222;2022-12-29T11:11:44;12.90;99.90
20081;DHT22;10200;49.232;9.222;2022-12-29T11:14:14;12.90;99.90
20081;DHT22;10200;49.232;9.222;2022-12-29T11:16:40;12.80;99.90
20081;DHT22;10200;49.232;9.222;2022-12-29T11:19:20;12.70;99.90
20081;DHT22;10200;49.232;9.222;2022-12-29T11:21:45;12.70;99.90
20081;DHT22;10200;49.232;9.222;2022-12-29T11:24:26;12.70;99.90
20081;DHT22;10200;49.232;9.222;2022-12-29T11:26:54;12.70;99.90
20081;DHT22;10200;49.232;9.222;2022-12-29T11:29:28;12.70;99.90
20081;DHT22;10200;49.232;9.222;2022-12-29T11:31:58;12.70;99.90
20081;DHT22;10200;49.232;9.222;2022-12-29T11:34:33;12.70;99.90
20081;DHT22;10200;49.232;9.222;2022-12-29T11:37:03;12.70;99.90
20081;DHT22;10200;49.232;9.222;2022-12-29T11:41:58;12.70;99.90
20081;DHT22;10200;49.232;9.222;2022-12-29T11:44:25;12.70;99.90
20081;DHT22;10200;49.232;9.222;2022-12-29T11:46:52;12.70;99.90
20081;DHT22;10200;49.232;9.222;2022-12-29T11:49:21;12.70;99.90
20081;DHT22;10200;49.232;9.222;2022-12-29T11:51:49;12.60;99.90
20081;DHT22;10200;49.232;9.222;2022-12-29T11:54:36;12.60;99.90
20081;DHT22;10200;49.232;9.222;2022-12-29T11:57:16;12.60;99.90
20081;DHT22;10200;49.232;9.222;2022-12-29T12:00:05;12.60;99.90
20081;DHT22;10200;49.232;9.222;2022-12-29T12:05:21;12.60;99.90
20081;DHT22;10200;49.232;9.222;2022-12-29T12:07:54;12.60;99.90
20081;DHT22;10200;49.232;9.222;2022-12-29T12:10:46;12.70;99.90
20081;DHT22;10200;49.232;9.222;2022-12-29T12:13:29;12.70;99.90
20081;DHT22;10200;49.232;9.222;2022-12-29T12:16:12;12.70;99.90
20081;DHT22;10200;49.232;9.222;2022-12-29T12:18:49;12.80;99.90
20081;DHT22;10200;49.232;9.222;2022-12-29T12:21:25;12.80;99.90
20081;DHT22;10200;49.232;9.222;2022-12-29T12:24:18;12.80;99.90
20081;DHT22;10200;49.232;9.222;2022-12-29T12:26:53;12.80;99.90
20081;DHT22;10200;49.232;9.222;2022-12-29T12:29:24;12.70;99.90
20081;DHT22;10200;49.232;9.222;2022-12-29T12:32:01;12.70;99.90
20081;DHT22;10200;49.232;9.222;2022-12-29T12:34:38;12.70;99.90
20081;DHT22;10200;49.232;9.222;2022-12-29T12:40:13;12.80;99.90
20081;DHT22;10200;49.232;9.222;2022-12-29T12:46:00;12.90;99.90
20081;DHT22;10200;49.232;9.222;2022-12-29T12:51:17;12.80;99.90
20081;DHT22;10200;49.232;9.222;2022-12-29T12:59:30;12.90;99.90
20081;DHT22;10200;49.232;9.222;2022-12-29T13:10:42;13.00;99.90
20081;DHT22;10200;49.232;9.222;2022-12-29T13:13:34;13.10;99.90
20081;DHT22;10200;49.232;9.222;2022-12-29T13:16:26;13.20;99.90
20081;DHT22;10200;49.232;9.222;2022-12-29T13:19:02;13.20;99.90
20081;DHT22;10200;49.232;9.222;2022-12-29T13:21:44;13.30;99.90
20081;DHT22;10200;49.232;9.222;2022-12-29T13:26:54;13.30;99.90
20081;DHT22;10200;49.232;9.222;2022-12-29T13:29:39;13.30;99.90
20081;DHT22;10200;49.232;9.222;2022-12-29T13:37:36;13.40;98.60
20081;DHT22;10200;49.232;9.222;2022-12-29T13:40:15;13.40;97.80
20081;DHT22;10200;49.232;9.222;2022-12-29T13:42:43;13.40;97.80
20081;DHT22;10200;49.232;9.222;2022-12-29T13:45:19;13.50;97.70
20081;DHT22;10200;49.232;9.222;2022-12-29T13:47:55;13.50;97.80
20081;DHT22;10200;49.232;9.222;2022-12-29T13:50:26;13.50;97.30
20081;DHT22;10200;49.232;9.222;2022-12-29T13:55:51;13.50;97.60
20081;DHT22;10200;49.232;9.222;2022-12-29T14:06:20;13.40;98.20
20081;DHT22;10200;49.232;9.222;2022-12-29T14:08:46;13.30;98.50
20081;DHT22;10200;49.232;9.222;2022-12-29T14:11:15;13.20;98.90
20081;DHT22;10200;49.232;9.222;2022-12-29T14:13:45;13.20;99.30
20081;DHT22;10200;49.232;9.222;2022-12-29T14:16:25;13.10;99.70
20081;DHT22;10200;49.232;9.222;2022-12-29T14:18:51;13.10;99.90
20081;DHT22;10200;49.232;9.222;2022-12-29T14:21:21;13.10;99.90
20081;DHT22;10200;49.232;9.222;2022-12-29T14:23:50;13.10;99.90
20081;DHT22;10200;49.232;9.222;2022-12-29T14:28:53;13.00;99.90
20081;DHT22;10200;49.232;9.222;2022-12-29T14:42:10;12.70;99.90
20081;DHT22;10200;49.232;9.222;2022-12-29T14:49:46;12.40;99.90
20081;DHT22;10200;49.232;9.222;2022-12-29T14:52:24;12.40;99.90
20081;DHT22;10200;49.232;9.222;2022-12-29T14:57:40;12.30;99.90
20081;DHT22;10200;49.232;9.222;2022-12-29T15:00:16;12.20;99.90
20081;DHT22;10200;49.232;9.222;2022-12-29T15:02:46;12.10;99.90
20081;DHT22;10200;49.232;9.222;2022-12-29T15:05:52;12.00;99.90
20081;DHT22;10200;49.232;9.222;2022-12-29T15:08:22;11.90;99.90
20081;DHT22;10200;49.232;9.222;2022-12-29T15:11:01;11.80;99.90
20081;DHT22;10200;49.232;9.222;2022-12-29T15:13:36;11.70;99.90
20081;DHT22;10200;49.232;9.222;2022-12-29T15:16:02;11.70;99.90
20081;DHT22;10200;49.232;9.222;2022-12-29T15:18:31;11.50;99.90
20081;DHT22;10200;49.232;9.222;2022-12-29T15:20:59;11.40;99.90
20081;DHT22;10200;49.232;9.222;2022-12-29T15:23:26;11.40;99.90
20081;DHT22;10200;49.232;9.222;2022-12-29T15:25:57;11.30;99.90
20081;DHT22;10200;49.232;9.222;2022-12-29T15:28:25;11.20;99.90
20081;DHT22;10200;49.232;9.222;2022-12-29T15:31:03;11.20;99.90
20081;DHT22;10200;49.232;9.222;2022-12-29T15:33:29;11.10;99.90
20081;DHT22;10200;49.232;9.222;2022-12-29T15:35:56;11.10;99.90
20081;DHT22;10200;49.232;9.222;2022-12-29T15:38:28;11.00;99.90
20081;DHT22;10200;49.232;9.222;2022-12-29T15:40:57;11.00;99.90
20081;DHT22;10200;49.232;9.222;2022-12-29T15:43:44;11.00;99.90
20081;DHT22;10200;49.232;9.222;2022-12-29T15:46:14;10.90;99.90
20081;DHT22;10200;49.232;9.222;2022-12-29T15:48:40;10.90;99.90
20081;DHT22;10200;49.232;9.222;2022-12-29T15:51:20;10.90;99.90
20081;DHT22;10200;49.232;9.222;2022-12-29T15:53:50;10.90;99.90
20081;DHT22;10200;49.232;9.222;2022-12-29T15:56:17;10.80;99.90
20081;DHT22;10200;49.232;9.222;2022-12-29T15:58:46;10.80;99.90
20081;DHT22;10200;49.232;9.222;2022-12-29T16:01:34;10.80;99.90
20081;DHT22;10200;49.232;9.222;2022-12-29T16:04:04;10.80;99.90
20081;DHT22;10200;49.232;9.222;2022-12-29T16:06:37;10.80;99.90
20081;DHT22;10200;49.232;9.222;2022-12-29T16:09:14;10.80;99.90
20081;DHT22;10200;49.232;9.222;2022-12-29T16:11:44;10.70;99.90
20081;DHT22;10200;49.232;9.222;2022-12-29T16:14:17;10.70;99.90
20081;DHT22;10200;49.232;9.222;2022-12-29T16:16:45;10.70;99.90
20081;DHT22;10200;49.232;9.222;2022-12-29T16:21:43;10.60;99.90
20081;DHT22;10200;49.232;9.222;2022-12-29T16:24:15;10.60;99.90
20081;DHT22;10200;49.232;9.222;2022-12-29T16:26:50;10.60;99.90
20081;DHT22;10200;49.232;9.222;2022-12-29T16:29:17;10.50;99.90
20081;DHT22;10200;49.232;9.222;2022-12-29T16:31:53;10.50;99.90
20081;DHT22;10200;49.232;9.222;2022-12-29T16:39:47;10.40;99.90
20081;DHT22;10200;49.232;9.222;2022-12-29T16:50:39;10.30;99.90
20081;DHT22;10200;49.232;9.222;2022-12-29T16:53:06;10.40;99.90
20081;DHT22;10200;49.232;9.222;2022-12-29T16:55:49;10.30;99.90
20081;DHT22;10200;49.232;9.222;2022-12-29T16:58:18;10.40;99.90
20081;DHT22;10200;49.232;9.222;2022-12-29T17:00:45;10.30;99.90
20081;DHT22;10200;49.232;9.222;2022-12-29T17:03:12;10.30;99.90
20081;DHT22;10200;49.232;9.222;2022-12-29T17:05:38;10.30;99.90
20081;DHT22;10200;49.232;9.222;2022-12-29T17:08:17;10.30;99.90
20081;DHT22;10200;49.232;9.222;2022-12-29T17:10:51;10.30;99.90
20081;DHT22;10200;49.232;9.222;2022-12-29T17:13:37;10.20;99.90
20081;DHT22;10200;49.232;9.222;2022-12-29T17:16:04;10.20;99.90
20081;DHT22;10200;49.232;9.222;2022-12-29T17:18:29;10.20;99.90
20081;DHT22;10200;49.232;9.222;2022-12-29T17:20:55;10.20;99.90
20081;DHT22;10200;49.232;9.222;2022-12-29T17:23:21;10.20;99.90
20081;DHT22;10200;49.232;9.222;2022-12-29T17:25:46;10.20;99.90
20081;DHT22;10200;49.232;9.222;2022-12-29T17:28:19;10.20;99.90
20081;DHT22;10200;49.232;9.222;2022-12-29T17:30:46;10.20;99.90
20081;DHT22;10200;49.232;9.222;2022-12-29T17:33:14;10.20;99.90
20081;DHT22;10200;49.232;9.222;2022-12-29T17:35:41;10.20;99.90
20081;DHT22;10200;49.232;9.222;2022-12-29T17:38:17;10.20;99.90
20081;DHT22;10200;49.232;9.222;2022-12-29T17:40:43;10.20;99.90
20081;DHT22;10200;49.232;9.222;2022-12-29T17:43:12;10.20;99.90
20081;DHT22;10200;49.232;9.222;2022-12-29T17:45:39;10.20;99.90
20081;DHT22;10200;49.232;9.222;2022-12-29T17:48:11;10.20;99.90
20081;DHT22;10200;49.232;9.222;2022-12-29T17:50:37;10.20;99.90
20081;DHT22;10200;49.232;9.222;2022-12-29T17:53:04;10.20;99.90
20081;DHT22;10200;49.232;9.222;2022-12-29T17:55:30;10.20;99.90
20081;DHT22;10200;49.232;9.222;2022-12-29T17:57:56;10.20;99.90
20081;DHT22;10200;49.232;9.222;2022-12-29T18:00:22;10.30;99.90
20081;DHT22;10200;49.232;9.222;2022-12-29T18:02:48;10.20;99.90
20081;DHT22;10200;49.232;9.222;2022-12-29T18:05:18;10.30;99.90
20081;DHT22;10200;49.232;9.222;2022-12-29T18:07:45;10.20;99.90
20081;DHT22;10200;49.232;9.222;2022-12-29T18:10:11;10.20;99.90
20081;DHT22;10200;49.232;9.222;2022-12-29T18:12:39;10.20;99.90
20081;DHT22;10200;49.232;9.222;2022-12-29T18:15:06;10.20;99.90
20081;DHT22;10200;49.232;9.222;2022-12-29T18:17:36;10.20;99.90